createdAt,value
2019-03-06T00:01:43.677Z,6.33
2019-03-06T00:04:14.856Z,6.20
2019-03-06T00:06:45.237Z,6.50
2019-03-06T00:09:14.083Z,6.20
2019-03-06T00:11:44.058Z,6.27
2019-03-06T00:14:13.024Z,6.30
2019-03-06T00:16:42.206Z,6.40
2019-03-06T00:19:12.210Z,6.57
2019-03-06T00:21:41.626Z,7.17
2019-03-06T00:24:13.443Z,6.60
2019-03-06T00:26:42.917Z,7.57
2019-03-06T00:29:11.759Z,7.37
2019-03-06T00:31:40.330Z,6.50
2019-03-06T00:34:09.017Z,6.90
2019-03-06T00:36:40.464Z,6.27
2019-03-06T00:39:09.663Z,7.10
2019-03-06T00:41:40.519Z,6.10
2019-03-06T00:44:10.719Z,7.67
2019-03-06T00:46:40.726Z,7.10
2019-03-06T00:49:09.395Z,6.70
2019-03-06T00:51:38.188Z,6.30
2019-03-06T00:54:08.407Z,7.73
2019-03-06T00:56:39.169Z,6.77
2019-03-06T00:59:08.763Z,7.70
2019-03-06T01:01:40.425Z,6.90
2019-03-06T01:04:09.331Z,6.40
2019-03-06T01:06:38.622Z,6.83
2019-03-06T01:09:07.778Z,6.93
2019-03-06T01:11:38.123Z,6.83
2019-03-06T01:14:06.939Z,8.40
2019-03-06T01:16:35.731Z,6.47
2019-03-06T01:19:04.806Z,6.97
2019-03-06T01:21:35.690Z,7.33
2019-03-06T01:24:04.757Z,7.57
2019-03-06T01:26:33.652Z,6.77
2019-03-06T01:29:02.745Z,7.33
2019-03-06T01:31:31.630Z,7.90
2019-03-06T01:34:09.633Z,7.93
2019-03-06T01:36:40.038Z,7.70
2019-03-06T01:39:20.500Z,9.07
2019-03-06T01:41:53.963Z,7.60
2019-03-06T01:44:28.183Z,9.50
2019-03-06T01:46:57.680Z,8.20
2019-03-06T01:49:26.482Z,8.50
2019-03-06T01:51:55.331Z,8.00
2019-03-06T01:54:24.268Z,9.00
2019-03-06T01:56:52.937Z,8.73
2019-03-06T01:59:21.791Z,9.23
2019-03-06T02:01:53.148Z,8.90
2019-03-06T02:04:21.830Z,6.43
2019-03-06T02:07:03.785Z,9.80
2019-03-06T02:09:30.273Z,8.77
2019-03-06T02:11:59.257Z,9.57
2019-03-06T02:14:30.226Z,9.20
2019-03-06T02:16:59.137Z,8.00
2019-03-06T02:19:28.230Z,7.73
2019-03-06T02:21:57.132Z,9.57
2019-03-06T02:24:25.938Z,8.80
2019-03-06T02:26:54.752Z,8.97
2019-03-06T02:29:23.851Z,7.47
2019-03-06T02:31:52.713Z,9.40
2019-03-06T02:34:21.509Z,8.37
2019-03-06T02:36:50.359Z,7.53
2019-03-06T02:39:19.264Z,9.33
2019-03-06T02:41:50.410Z,7.37
2019-03-06T02:44:22.474Z,8.60
2019-03-06T02:46:51.343Z,10.00
2019-03-06T02:49:20.116Z,10.53
2019-03-06T02:51:49.111Z,10.30
2019-03-06T02:54:17.923Z,10.27
2019-03-06T02:56:46.846Z,9.70
2019-03-06T02:59:17.378Z,10.47
2019-03-06T03:01:55.875Z,10.77
2019-03-06T03:04:35.296Z,9.43
2019-03-06T03:07:06.868Z,8.37
2019-03-06T03:09:35.988Z,10.40
2019-03-06T03:12:05.904Z,10.10
2019-03-06T03:14:36.784Z,9.87
2019-03-06T03:17:05.901Z,10.47
2019-03-06T03:19:36.263Z,10.60
2019-03-06T03:22:05.434Z,11.13
2019-03-06T03:24:36.497Z,11.73
2019-03-06T03:27:05.580Z,12.30
2019-03-06T03:29:35.670Z,12.73
2019-03-06T03:32:04.454Z,11.97
2019-03-06T03:34:33.669Z,4.77
2019-03-06T03:37:02.483Z,2.73
2019-03-06T03:39:32.375Z,1.53
2019-03-06T03:42:01.246Z,2.13
2019-03-06T03:44:30.155Z,4.57
2019-03-06T03:47:00.078Z,3.33
2019-03-06T03:49:31.512Z,6.50
2019-03-06T03:52:00.390Z,9.07
2019-03-06T03:54:31.948Z,10.23
2019-03-06T03:57:00.738Z,10.37
2019-03-06T03:59:29.959Z,11.13
2019-03-06T04:01:58.955Z,9.73
2019-03-06T04:04:28.227Z,12.90
2019-03-06T04:06:56.911Z,12.73
2019-03-06T04:09:25.772Z,12.00
2019-03-06T04:11:54.683Z,11.53
2019-03-06T04:14:23.589Z,10.97
2019-03-06T04:16:52.614Z,12.20
2019-03-06T04:19:21.484Z,12.67
2019-03-06T04:21:51.101Z,13.57
2019-03-06T04:24:22.192Z,12.03
2019-03-06T04:26:51.171Z,9.83
2019-03-06T04:29:19.881Z,11.43
2019-03-06T04:31:49.925Z,10.13
2019-03-06T04:34:18.649Z,10.77
2019-03-06T04:36:47.422Z,10.43
2019-03-06T04:39:20.160Z,11.50
2019-03-06T04:41:49.039Z,12.30
2019-03-06T04:44:17.736Z,10.30
2019-03-06T04:46:46.587Z,12.83
2019-03-06T04:49:15.304Z,8.53
2019-03-06T04:51:43.921Z,10.70
2019-03-06T04:54:12.819Z,10.20
2019-03-06T04:56:41.828Z,11.00
2019-03-06T04:59:11.315Z,9.07
2019-03-06T05:01:40.102Z,10.10
2019-03-06T05:04:09.303Z,9.67
2019-03-06T05:06:37.983Z,10.33
2019-03-06T05:09:07.592Z,11.40
2019-03-06T05:11:36.373Z,10.57
2019-03-06T05:14:05.103Z,12.17
2019-03-06T05:16:38.409Z,13.40
2019-03-06T05:19:08.252Z,12.33
2019-03-06T05:21:37.034Z,12.73
2019-03-06T05:24:05.973Z,13.43
2019-03-06T05:26:35.671Z,10.07
2019-03-06T05:29:04.512Z,12.53
2019-03-06T05:31:33.971Z,12.13
2019-03-06T05:34:02.821Z,13.43
2019-03-06T05:36:54.872Z,15.10
2019-03-06T05:39:23.560Z,13.87
2019-03-06T05:41:52.385Z,11.43
2019-03-06T05:44:22.283Z,12.97
2019-03-06T05:46:52.737Z,11.27
2019-03-06T05:49:23.123Z,12.63
2019-03-06T05:51:53.164Z,12.20
2019-03-06T05:54:21.845Z,10.83
2019-03-06T05:56:50.919Z,11.50
2019-03-06T05:59:20.807Z,10.80
2019-03-06T06:01:49.557Z,10.27
2019-03-06T06:04:18.952Z,8.73
2019-03-06T06:06:51.745Z,7.70
2019-03-06T06:09:23.042Z,8.10
2019-03-06T06:11:51.704Z,6.87
2019-03-06T06:14:20.376Z,6.53
2019-03-06T06:16:55.631Z,6.47
2019-03-06T06:19:26.002Z,4.67
2019-03-06T06:21:56.440Z,4.13
2019-03-06T06:24:27.632Z,3.93
2019-03-06T06:26:57.367Z,3.57
2019-03-06T06:29:26.403Z,3.57
2019-03-06T06:31:55.588Z,3.43
2019-03-06T06:34:24.224Z,3.90
2019-03-06T06:36:53.024Z,3.80
2019-03-06T06:39:22.497Z,3.73
2019-03-06T06:41:51.532Z,3.20
2019-03-06T06:44:21.996Z,3.97
2019-03-06T06:46:52.119Z,3.77
2019-03-06T06:49:21.976Z,4.03
2019-03-06T06:52:12.065Z,4.00
2019-03-06T06:55:04.594Z,3.80
2019-03-06T06:57:56.087Z,8.20
2019-03-06T07:00:50.955Z,4.20
2019-03-06T07:03:47.595Z,4.63
2019-03-06T07:06:31.201Z,4.53
2019-03-06T07:09:03.989Z,4.80
2019-03-06T07:11:35.535Z,4.73
2019-03-06T07:14:10.505Z,5.70
2019-03-06T07:16:51.742Z,6.67
2019-03-06T07:19:27.243Z,5.77
2019-03-06T07:22:17.320Z,5.20
2019-03-06T07:24:59.675Z,15.10
2019-03-06T07:30:36.199Z,7.57
2019-03-06T07:33:15.423Z,7.27
2019-03-06T07:36:05.065Z,6.60
2019-03-06T07:38:37.540Z,8.93
2019-03-06T07:41:12.321Z,6.80
2019-03-06T07:43:59.563Z,6.20
2019-03-06T07:46:54.488Z,6.83
2019-03-06T07:49:29.158Z,7.40
2019-03-06T07:52:15.768Z,8.67
2019-03-06T07:55:02.703Z,6.07
2019-03-06T07:57:34.473Z,7.50
2019-03-06T08:00:06.779Z,7.50
2019-03-06T08:02:39.279Z,7.27
2019-03-06T08:05:25.818Z,7.37
2019-03-06T08:07:58.669Z,10.70
2019-03-06T08:10:42.015Z,9.30
2019-03-06T08:13:15.608Z,13.10
2019-03-06T08:15:59.279Z,9.37
2019-03-06T08:18:29.872Z,9.90
2019-03-06T08:21:26.030Z,9.97
2019-03-06T08:23:57.600Z,9.97
2019-03-06T08:26:31.495Z,8.67
2019-03-06T08:29:02.009Z,9.40
2019-03-06T08:31:36.282Z,9.47
2019-03-06T08:34:05.322Z,10.13
2019-03-06T08:36:34.759Z,10.20
2019-03-06T08:39:14.992Z,9.37
2019-03-06T08:41:44.486Z,10.63
2019-03-06T08:47:15.470Z,14.50
2019-03-06T08:49:49.524Z,9.50
2019-03-06T08:52:21.754Z,9.57
2019-03-06T08:54:52.355Z,9.67
2019-03-06T08:57:35.173Z,10.03
2019-03-06T09:00:35.450Z,9.70
2019-03-06T09:03:16.600Z,9.77
2019-03-06T09:06:04.809Z,10.33
2019-03-06T09:08:51.609Z,10.47
2019-03-06T09:11:22.569Z,13.03
2019-03-06T09:13:53.170Z,11.77
2019-03-06T09:16:27.308Z,13.37
2019-03-06T09:18:57.872Z,13.83
2019-03-06T09:21:28.324Z,15.87
2019-03-06T09:24:15.212Z,17.07
2019-03-06T09:26:47.044Z,17.27
2019-03-06T09:29:20.712Z,17.00
2019-03-06T09:31:52.223Z,17.07
2019-03-06T09:34:23.779Z,18.77
2019-03-06T09:37:03.062Z,18.27
2019-03-06T09:39:42.405Z,19.53
2019-03-06T09:42:29.222Z,18.83
2019-03-06T09:44:59.787Z,19.53
2019-03-06T09:47:40.547Z,19.37
2019-03-06T09:50:12.654Z,18.53
2019-03-06T09:53:00.151Z,19.07
2019-03-06T09:55:37.274Z,20.30
2019-03-06T09:58:09.689Z,20.37
2019-03-06T10:00:52.951Z,19.07
2019-03-06T10:03:40.268Z,21.07
2019-03-06T10:06:14.954Z,20.33
2019-03-06T10:09:04.076Z,19.43
2019-03-06T10:11:40.053Z,20.47
2019-03-06T10:14:13.110Z,18.60
2019-03-06T10:16:51.009Z,20.17
2019-03-06T10:19:25.369Z,18.50
2019-03-06T10:21:59.138Z,20.73
2019-03-06T10:24:29.332Z,19.53
2019-03-06T10:26:58.205Z,20.33
2019-03-06T10:29:27.962Z,19.73
2019-03-06T10:31:56.716Z,19.67
2019-03-06T10:34:25.817Z,23.67
2019-03-06T10:36:55.369Z,18.13
2019-03-06T10:39:28.216Z,17.73
2019-03-06T10:41:57.778Z,17.03
2019-03-06T10:44:29.844Z,16.30
2019-03-06T10:47:01.519Z,17.63
2019-03-06T10:49:31.941Z,14.97
2019-03-06T10:52:01.309Z,17.93
2019-03-06T10:54:30.359Z,16.27
2019-03-06T10:56:59.017Z,16.50
2019-03-06T10:59:27.978Z,15.17
2019-03-06T11:01:58.430Z,13.63
2019-03-06T11:04:32.015Z,14.43
2019-03-06T11:07:03.749Z,13.60
2019-03-06T11:09:32.730Z,14.87
2019-03-06T11:12:01.478Z,19.30
2019-03-06T11:14:30.740Z,16.50
2019-03-06T11:16:59.767Z,16.33
2019-03-06T11:19:28.755Z,16.03
2019-03-06T11:21:58.072Z,16.13
2019-03-06T11:24:27.232Z,14.67
2019-03-06T11:26:57.727Z,16.23
2019-03-06T11:29:26.986Z,15.63
2019-03-06T11:31:57.111Z,17.17
2019-03-06T11:34:25.914Z,16.83
2019-03-06T11:36:55.205Z,15.87
2019-03-06T11:39:24.622Z,17.00
2019-03-06T11:41:53.454Z,17.83
2019-03-06T11:44:22.279Z,17.17
2019-03-06T11:46:54.490Z,15.83
2019-03-06T11:49:23.267Z,15.20
2019-03-06T11:51:54.212Z,16.67
2019-03-06T11:54:25.147Z,16.03
2019-03-06T11:56:55.039Z,17.30
2019-03-06T11:59:25.261Z,14.77
2019-03-06T12:01:54.152Z,15.07
2019-03-06T12:04:24.720Z,13.63
2019-03-06T12:06:53.886Z,13.30
2019-03-06T12:09:29.282Z,13.17
2019-03-06T12:11:58.898Z,11.73
2019-03-06T12:14:27.986Z,14.13
2019-03-06T12:16:56.820Z,13.77
2019-03-06T12:19:26.196Z,12.33
2019-03-06T12:21:58.404Z,11.60
2019-03-06T12:24:27.424Z,12.07
2019-03-06T12:26:56.179Z,11.97
2019-03-06T12:29:27.946Z,10.30
2019-03-06T12:31:56.642Z,10.20
2019-03-06T12:34:26.383Z,9.87
2019-03-06T12:36:55.778Z,9.63
2019-03-06T12:39:24.545Z,10.03
2019-03-06T12:41:54.979Z,8.57
2019-03-06T12:44:24.708Z,8.13
2019-03-06T12:46:53.531Z,15.73
2019-03-06T12:49:23.322Z,9.80
2019-03-06T12:51:55.038Z,9.90
2019-03-06T12:54:24.863Z,20.93
2019-03-06T12:56:54.735Z,9.33
2019-03-06T12:59:25.612Z,8.77
2019-03-06T13:01:54.523Z,7.57
2019-03-06T13:04:24.600Z,7.43
2019-03-06T13:06:53.408Z,8.13
2019-03-06T13:09:23.815Z,8.23
2019-03-06T13:11:52.584Z,9.23
2019-03-06T13:14:30.526Z,8.00
2019-03-06T13:16:57.323Z,7.63
2019-03-06T13:19:26.423Z,7.60
2019-03-06T13:21:55.541Z,8.63
2019-03-06T13:24:24.318Z,8.80
2019-03-06T13:26:53.085Z,8.10
2019-03-06T13:29:23.442Z,7.60
2019-03-06T13:31:53.253Z,7.47
2019-03-06T13:34:23.584Z,7.60
2019-03-06T13:36:53.579Z,8.27
2019-03-06T13:39:22.512Z,7.90
2019-03-06T13:41:51.541Z,7.40
2019-03-06T13:44:20.408Z,6.97
2019-03-06T13:46:50.306Z,6.63
2019-03-06T13:49:19.011Z,7.37
2019-03-06T13:51:47.750Z,7.77
2019-03-06T13:54:18.129Z,7.90
2019-03-06T13:56:47.150Z,6.83
2019-03-06T13:59:15.960Z,7.57
2019-03-06T14:01:44.905Z,6.97
2019-03-06T14:04:16.841Z,7.80
2019-03-06T14:06:50.354Z,7.63
2019-03-06T14:09:25.197Z,7.17
2019-03-06T14:11:55.804Z,7.23
2019-03-06T14:14:26.163Z,6.70
2019-03-06T14:16:57.916Z,7.07
2019-03-06T14:19:27.544Z,6.47
2019-03-06T14:21:56.606Z,7.13
2019-03-06T14:24:25.603Z,6.63
2019-03-06T14:26:57.453Z,6.30
2019-03-06T14:29:27.758Z,6.10
2019-03-06T14:31:57.165Z,6.30
2019-03-06T14:34:27.301Z,6.63
2019-03-06T14:36:56.197Z,6.57
2019-03-06T14:39:28.042Z,6.57
2019-03-06T14:41:58.530Z,7.20
2019-03-06T14:44:27.833Z,6.97
2019-03-06T14:46:57.704Z,7.60
2019-03-06T14:49:26.545Z,7.03
2019-03-06T14:52:06.962Z,7.17
2019-03-06T14:54:31.617Z,7.83
2019-03-06T14:57:02.748Z,7.27
2019-03-06T14:59:32.241Z,7.33
2019-03-06T15:02:01.194Z,8.37
2019-03-06T15:04:32.476Z,7.50
2019-03-06T15:07:01.514Z,7.57
2019-03-06T15:09:31.510Z,8.80
2019-03-06T15:12:04.249Z,8.07
2019-03-06T15:14:37.885Z,8.23
2019-03-06T15:17:09.124Z,7.47
2019-03-06T15:19:39.243Z,7.80
2019-03-06T15:22:09.368Z,8.00
2019-03-06T15:24:41.668Z,7.07
2019-03-06T15:27:10.901Z,8.00
2019-03-06T15:29:40.134Z,8.17
2019-03-06T15:32:10.402Z,8.47
2019-03-06T15:34:39.244Z,7.87
2019-03-06T15:37:09.515Z,8.10
2019-03-06T15:39:45.665Z,7.10
2019-03-06T15:42:10.154Z,7.60
2019-03-06T15:44:44.068Z,7.50
2019-03-06T15:47:13.123Z,7.50
2019-03-06T15:49:42.889Z,7.27
2019-03-06T15:52:12.137Z,6.93
2019-03-06T15:54:42.511Z,7.83
2019-03-06T15:57:11.411Z,8.30
2019-03-06T15:59:50.052Z,7.43
2019-03-06T16:02:20.691Z,8.13
2019-03-06T16:04:50.225Z,8.30
2019-03-06T16:07:20.298Z,7.77
2019-03-06T16:09:53.030Z,7.87
2019-03-06T16:12:24.425Z,7.43
2019-03-06T16:14:58.446Z,7.43
2019-03-06T16:17:30.932Z,7.67
2019-03-06T16:20:08.821Z,8.60
2019-03-06T16:22:40.705Z,8.37
2019-03-06T16:25:15.004Z,8.63
2019-03-06T16:27:49.270Z,8.83
2019-03-06T16:30:23.802Z,9.43
2019-03-06T16:32:54.244Z,7.67
2019-03-06T16:35:31.273Z,9.50
2019-03-06T16:38:03.129Z,9.97
2019-03-06T16:40:38.965Z,12.60
2019-03-06T16:43:18.568Z,13.67
2019-03-06T16:45:43.082Z,15.20
2019-03-06T16:48:11.918Z,13.97
2019-03-06T16:50:41.881Z,14.90
2019-03-06T16:53:17.445Z,17.17
2019-03-06T16:55:50.740Z,19.30
2019-03-06T16:58:24.811Z,16.33
2019-03-06T17:00:55.206Z,16.00
2019-03-06T17:03:35.333Z,16.73
2019-03-06T17:06:07.717Z,17.50
2019-03-06T17:08:36.688Z,18.37
2019-03-06T17:11:06.437Z,18.93
2019-03-06T17:13:40.794Z,20.07
2019-03-06T17:16:11.077Z,19.23
2019-03-06T17:18:39.831Z,22.00
2019-03-06T17:21:08.705Z,21.87
2019-03-06T17:23:37.382Z,22.37
2019-03-06T17:26:08.417Z,22.67
2019-03-06T17:28:44.894Z,22.77
2019-03-06T17:31:12.740Z,23.83
2019-03-06T17:33:41.454Z,22.63
2019-03-06T17:36:12.086Z,23.37
2019-03-06T17:38:42.545Z,23.43
2019-03-06T17:41:13.053Z,24.40
2019-03-06T17:43:47.823Z,23.27
2019-03-06T17:46:17.199Z,23.87
2019-03-06T17:48:48.037Z,24.43
2019-03-06T17:51:18.596Z,25.17
2019-03-06T17:53:48.104Z,25.93
2019-03-06T17:56:20.287Z,26.50
2019-03-06T17:58:51.057Z,26.00
2019-03-06T18:01:20.552Z,26.90
2019-03-06T18:03:53.869Z,26.43
2019-03-06T18:06:24.653Z,26.37
2019-03-06T18:08:59.374Z,26.63
2019-03-06T18:11:30.306Z,26.13
2019-03-06T18:13:59.535Z,27.30
2019-03-06T18:16:29.119Z,27.53
2019-03-06T18:19:00.424Z,26.90
2019-03-06T18:21:32.526Z,27.87
2019-03-06T18:24:08.668Z,26.27
2019-03-06T18:26:42.496Z,27.83
2019-03-06T18:29:14.374Z,27.00
2019-03-06T18:31:43.293Z,26.07
2019-03-06T18:34:14.010Z,27.83
2019-03-06T18:36:46.359Z,26.80
2019-03-06T18:39:21.287Z,28.10
2019-03-06T18:41:52.552Z,28.00
2019-03-06T18:44:22.518Z,27.50
2019-03-06T18:46:52.765Z,30.43
2019-03-06T18:49:21.579Z,30.57
2019-03-06T18:51:50.235Z,28.67
2019-03-06T18:54:23.128Z,29.00
2019-03-06T18:56:52.649Z,29.10
2019-03-06T18:59:23.232Z,27.77
2019-03-06T19:01:54.004Z,28.83
2019-03-06T19:04:26.109Z,27.07
2019-03-06T19:06:57.220Z,30.97
2019-03-06T19:09:36.344Z,29.23
2019-03-06T19:12:07.606Z,30.37
2019-03-06T19:14:37.082Z,30.47
2019-03-06T19:17:08.176Z,29.57
2019-03-06T19:19:40.255Z,30.67
2019-03-06T19:22:13.250Z,31.53
2019-03-06T19:24:45.433Z,32.73
2019-03-06T19:27:24.584Z,32.53
2019-03-06T19:29:55.862Z,33.50
2019-03-06T19:32:35.177Z,33.23
2019-03-06T19:35:07.413Z,32.83
2019-03-06T19:40:29.128Z,31.70
2019-03-06T19:42:59.482Z,31.13
2019-03-06T19:45:31.992Z,31.23
2019-03-06T19:48:00.745Z,28.97
2019-03-06T19:50:29.494Z,28.50
2019-03-06T19:52:59.002Z,27.73
2019-03-06T19:55:27.798Z,26.73
2019-03-06T19:58:07.065Z,27.13
2019-03-06T20:00:42.834Z,29.63
2019-03-06T20:03:12.593Z,29.73
2019-03-06T20:05:43.748Z,27.87
2019-03-06T20:08:17.495Z,27.90
2019-03-06T20:10:47.452Z,26.67
2019-03-06T20:13:16.635Z,27.80
2019-03-06T20:15:48.310Z,29.53
2019-03-06T20:18:18.659Z,28.43
2019-03-06T20:20:52.302Z,28.70
2019-03-06T20:23:24.752Z,28.20
2019-03-06T20:25:59.192Z,27.57
2019-03-06T20:28:27.935Z,27.30
2019-03-06T20:31:00.020Z,26.90
2019-03-06T20:33:30.785Z,27.10
2019-03-06T20:36:02.555Z,28.30
2019-03-06T20:38:32.832Z,26.10
2019-03-06T20:41:04.176Z,26.67
2019-03-06T20:43:34.570Z,27.50
2019-03-06T20:46:06.796Z,26.57
2019-03-06T20:48:39.994Z,25.43
2019-03-06T20:51:11.532Z,27.23
2019-03-06T20:53:45.913Z,26.43
2019-03-06T20:56:18.333Z,26.13
2019-03-06T20:58:48.473Z,26.77
2019-03-06T21:01:18.518Z,25.93
2019-03-06T21:03:47.404Z,26.90
2019-03-06T21:06:17.343Z,26.00
2019-03-06T21:08:47.949Z,26.53
2019-03-06T21:11:17.187Z,27.17
2019-03-06T21:13:46.645Z,26.63
2019-03-06T21:16:16.815Z,26.67
2019-03-06T21:18:48.508Z,25.33
2019-03-06T21:21:18.597Z,26.27
2019-03-06T21:23:48.679Z,27.00
2019-03-06T21:26:20.756Z,28.10
2019-03-06T21:28:57.540Z,28.37
2019-03-06T21:31:27.564Z,26.70
2019-03-06T21:33:56.415Z,25.37
2019-03-06T21:36:25.048Z,26.67
2019-03-06T21:38:54.287Z,27.90
2019-03-06T21:41:31.192Z,27.03
2019-03-06T21:44:05.111Z,26.43
2019-03-06T21:46:31.582Z,25.53
2019-03-06T21:49:02.072Z,27.07
2019-03-06T21:51:32.457Z,24.97
2019-03-06T21:54:02.145Z,26.33
2019-03-06T21:56:32.093Z,25.23
2019-03-06T21:59:00.957Z,25.70
2019-03-06T22:01:30.799Z,25.13
2019-03-06T22:03:59.621Z,25.90
2019-03-06T22:06:29.406Z,25.40
2019-03-06T22:09:00.712Z,24.63
2019-03-06T22:11:32.117Z,24.33
2019-03-06T22:14:02.944Z,25.07
2019-03-06T22:16:32.246Z,25.03
2019-03-06T22:19:01.976Z,26.07
2019-03-06T22:21:35.123Z,24.57
2019-03-06T22:24:03.943Z,23.73
2019-03-06T22:26:33.932Z,24.87
2019-03-06T22:29:03.884Z,23.53
2019-03-06T22:31:32.632Z,25.17
2019-03-06T22:34:05.888Z,25.40
2019-03-06T22:36:38.446Z,25.77
2019-03-06T22:39:09.959Z,25.37
2019-03-06T22:41:38.823Z,23.73
2019-03-06T22:44:09.085Z,24.30
2019-03-06T22:46:37.847Z,23.17
2019-03-06T22:49:09.363Z,23.43
2019-03-06T22:51:38.190Z,24.47
2019-03-06T22:54:06.961Z,24.00
2019-03-06T22:56:42.358Z,25.10
2019-03-06T22:59:11.050Z,23.10
2019-03-06T23:01:45.038Z,24.53
2019-03-06T23:04:16.262Z,25.40
2019-03-06T23:06:48.631Z,24.33
2019-03-06T23:09:21.223Z,23.90
2019-03-06T23:11:51.536Z,25.43
2019-03-06T23:14:20.268Z,25.87
2019-03-06T23:16:51.013Z,24.87
2019-03-06T23:19:20.691Z,22.30
2019-03-06T23:21:49.367Z,23.13
2019-03-06T23:24:20.848Z,22.23
2019-03-06T23:26:51.651Z,24.00
2019-03-06T23:29:20.672Z,22.83
2019-03-06T23:31:50.510Z,23.77
2019-03-06T23:34:21.462Z,22.20
2019-03-06T23:36:50.965Z,23.03
2019-03-06T23:39:19.631Z,22.10
2019-03-06T23:41:48.380Z,21.30
2019-03-06T23:44:17.325Z,21.50
2019-03-06T23:46:47.779Z,23.03
2019-03-06T23:49:16.517Z,22.23
2019-03-06T23:51:46.795Z,21.87
2019-03-06T23:54:16.872Z,22.03
2019-03-06T23:56:47.273Z,23.23
2019-03-06T23:59:17.609Z,22.27
